Latest Weather Observations for Parkes Airport

IDN60801

Issued at 11:33 am EDT Wednesday 1 April 2015 (issued every 30 minutes, with the page automatically refreshed every 10 minutes)

About weather observations | Map of weather stations | Latest weather observations for NSW | Other Formats
Station Details ID: 065068 Name: PARKES AIRPORT AWS Lat: -33.13 Lon: 148.24 Height: 323.3 m
Data from the previous 72 hours. | See also: Recent months at Parkes Airport
Date/Time
EDT
Temp
°C
App
Temp
°C
Dew
Point
Rel
Hum
%
Delta-T
°C
Wind Press
QNH
hPa
Press
MSL
hPa
Rain
since 9 am
mm
Dir
 
Spd
km/h
Gust
km/h
Spd
kts
Gust
kts
01/11:30am 24.2 20.9 12.8 49 6.6 NNE 22 30 12 16 1022.9 1022.3 0.0
01/11:00am 24.2 20.8 13.7 52 6.2 NNE 24 35 13 19 1023.4 1022.8 0.0
01/10:30am 23.3 19.1 13.5 54 5.8 NE 28 33 15 18 1023.6 1022.4 0.0
01/10:00am 22.5 19.4 13.3 56 5.4 NE 22 35 12 19 1023.7 1022.5 0.0
01/09:30am 21.9 19.5 13.8 60 4.7 NE 19 30 10 16 1024.0 1022.7 0.0
01/09:00am 20.2 18.4 13.4 65 3.9 NE 15 20 8 11 1024.0 1022.7 0.0
01/08:30am 19.3 19.6 13.5 69 3.4 ENE 4 9 2 5 1023.9 1022.6 0.0
01/08:00am 17.5 16.5 13.4 77 2.3 E 11 13 6 7 1023.2 1022.0 0.0
01/07:30am 16.2 15.8 12.9 81 1.9 NNE 7 9 4 5 1023.0 1021.8 0.0
01/07:00am 16.3 14.7 12.7 79 2.0 NE 13 17 7 9 1022.7 1021.5 0.0
01/06:30am 15.7 14.6 12.1 79 2.0 NE 9 11 5 6 1022.3 1021.0 0.0
01/06:00am 16.6 14.7 12.9 79 2.1 ENE 15 19 8 10 1022.1 1020.8 0.0
01/05:30am 16.7 14.5 13.2 80 2.0 ENE 17 24 9 13 1022.0 1020.7 0.0
01/05:00am 16.0 14.4 12.9 82 1.7 ENE 13 17 7 9 1022.1 1020.8 0.0
01/04:30am 15.2 14.2 12.3 83 1.6 ENE 9 11 5 6 1022.4 1021.1 0.0
01/04:00am 15.7 14.0 12.3 80 1.9 ENE 13 15 7 8 1022.7 1021.5 0.0
01/03:30am 15.7 14.6 11.9 78 2.1 NE 9 11 5 6 1023.0 1021.8 0.0
01/03:00am 16.2 14.0 12.2 77 2.2 NE 15 17 8 9 1023.3 1022.1 0.0
01/02:30am 17.5 14.6 12.4 72 2.9 NE 19 22 10 12 1023.5 1022.3 0.0
01/02:00am 17.5 15.3 12.2 71 3.0 NE 15 20 8 11 1024.0 1022.7 0.0
01/01:30am 18.4 15.4 12.6 69 3.3 NE 20 28 11 15 1024.1 1022.8 0.0
01/01:00am 18.1 16.3 12.1 68 3.4 NNE 13 20 7 11 1024.2 1022.9 0.0
01/12:30am 18.6 16.3 11.9 65 3.7 NE 15 24 8 13 1024.1 1022.8 0.0
01/12:00am 19.2 15.6 12.0 63 4.0 ENE 22 28 12 15 1024.1 1022.8 0.0
 
Date/Time
EDT
Temp
°C
App
Temp
°C
Dew
Point
Rel
Hum
%
Delta-T
°C
Wind Press
QNH
hPa
Press
MSL
hPa
Rain
since 9 am
mm
Dir
 
Spd
km/h
Gust
km/h
Spd
kts
Gust
kts
31/11:30pm 19.7 16.1 12.0 61 4.3 ENE 22 30 12 16 1024.3 1023.0 0.0
31/11:00pm 19.9 16.3 11.9 60 4.5 ENE 22 32 12 17 1024.2 1022.9 0.0
31/10:30pm 20.5 17.5 12.0 58 4.8 ENE 19 28 10 15 1024.0 1022.7 0.0
31/10:00pm 20.5 17.9 12.0 58 4.8 ENE 17 28 9 15 1023.6 1022.4 0.0
31/09:30pm 20.6 17.5 11.5 56 5.1 E 19 24 10 13 1023.3 1022.1 0.0
31/09:00pm 20.7 18.0 11.6 56 5.1 E 17 20 9 11 1023.1 1021.9 0.0
31/08:30pm 18.9 16.9 11.5 62 4.1 E 13 17 7 9 1022.7 1021.5 0.0
31/08:00pm 19.4 17.6 10.7 57 4.8 ESE 11 11 6 6 1022.3 1021.0 0.0
31/07:30pm 21.6 20.0 10.1 48 6.3 E 9 11 5 6 1022.0 1020.7 0.0
31/07:00pm 24.4 22.0 9.9 40 8.1 ESE 13 20 7 11 1021.5 1020.2 0.0
31/06:30pm 25.8 23.3 9.6 36 9.0 E 13 17 7 9 1021.4 1020.1 0.0
31/06:00pm 26.3 24.4 9.2 34 9.5 ESE 9 15 5 8 1021.4 1020.1 0.0
31/05:30pm 26.5 22.8 9.4 34 9.5 SE 19 24 10 13 1021.4 1020.1 0.0
31/05:00pm 26.6 25.0 10.3 36 9.2 E 9 13 5 7 1021.5 1020.2 0.0
31/04:30pm 25.8 24.0 9.6 36 9.0 SSE 9 13 5 7 1021.8 1020.5 0.0
31/04:00pm 26.0 24.3 9.8 36 9.1 ESE 9 15 5 8 1022.1 1020.8 0.0
31/03:30pm 25.7 24.2 10.7 39 8.5 ESE 9 13 5 7 1022.5 1021.2 0.0
31/03:00pm 25.3 23.2 11.1 41 8.1 E 13 17 7 9 1022.7 1021.5 0.0
31/02:30pm 25.4 23.8 10.1 38 8.6 ENE 9 11 5 6 1023.0 1021.8 0.0
31/02:00pm 25.3 22.8 9.6 37 8.7 ENE 13 19 7 10 1023.2 1022.0 0.0
31/01:30pm 26.4 25.1 11.3 39 8.7 ESE 9 19 5 10 1023.5 1022.3 0.0
31/01:00pm 25.6 24.2 11.0 40 8.3 SSE 9 17 5 9 1024.1 1022.8 0.0
31/12:30pm 26.4 24.0 12.8 43 8.0 NNE 17 24 9 13 1024.5 1023.2 0.0
31/12:00pm 25.1 23.0 12.3 45 7.4 NE 15 28 8 15 1024.8 1023.5 0.0
31/11:30am 24.6 21.8 13.2 49 6.7 NNE 20 28 11 15 1025.2 1023.9 0.0
31/11:00am 23.9 23.7 13.7 53 6.0 N 7 20 4 11 1025.5 1024.3 0.0
31/10:30am 22.7 22.8 14.0 58 5.2 NE 6 9 3 5 1025.5 1024.3 0.0
31/10:00am 21.7 21.5 13.6 60 4.7 E 7 11 4 6 1025.5 1024.3 0.0
31/09:30am 20.5 19.6 13.7 65 4.0 E 11 17 6 9 1025.3 1024.1 0.0
31/09:00am 18.0 18.0 13.7 76 2.5 NW 6 7 3 4 1025.1 1023.8 2.0
31/08:30am 17.2 16.7 13.7 80 2.0 N 9 13 5 7 1024.6 1023.3 2.0
31/08:00am 15.9 14.6 13.6 86 1.3 E 13 19 7 10 1024.3 1023.0 2.0
31/07:30am 14.5 12.1 12.7 89 1.0 E 17 19 9 10 1024.0 1022.7 2.0
31/07:00am 15.2 12.8 12.5 84 1.5 ESE 17 20 9 11 1023.5 1022.3 2.0
31/06:30am 15.2 13.8 13.4 89 1.0 E 13 17 7 9 1023.3 1022.1 2.0
31/06:00am 15.4 13.0 13.8 90 0.9 E 19 22 10 12 1023.2 1022.0 2.0
31/05:30am 15.7 14.1 13.9 89 1.0 E 15 19 8 10 1023.1 1021.9 2.0
31/05:00am 15.4 13.3 13.6 89 1.0 ESE 17 22 9 12 1023.2 1022.0 2.0
31/04:30am 15.8 12.3 13.5 86 1.3 E 24 32 13 17 1023.5 1022.3 1.4
31/04:00am 15.4 13.2 13.4 88 1.1 ESE 17 24 9 13 1023.6 1022.4 0.8
31/03:30am 15.1 12.7 12.6 85 1.4 NE 17 22 9 12 1023.5 1022.3 0.6
31/03:00am 16.2 13.6 13.9 86 1.3 ENE 20 28 11 15 1023.9 1022.6 0.2
31/02:30am 16.8 15.2 8.8 59 4.2 ESE 7 15 4 8 1024.1 1022.8 0.0
31/02:00am 15.6 14.7 6.1 53 4.6 CALM 0 2 0 1 1024.2 1022.9 0.0
31/01:30am 15.9 14.7 6.6 54 4.6 SSW 2 7 1 4 1024.3 1023.0 0.0
31/01:00am 15.3 13.1 5.5 52 4.7 SW 6 7 3 4 1024.3 1023.0 0.0
31/12:30am 14.9 13.4 4.9 51 4.8 SW 2 7 1 4 1024.5 1023.2 0.0
31/12:00am 16.8 15.4 5.7 48 5.4 N 2 7 1 4 1024.4 1023.1 0.0
 
Date/Time
EDT
Temp
°C
App
Temp
°C
Dew
Point
Rel
Hum
%
Delta-T
°C
Wind Press
QNH
hPa
Press
MSL
hPa
Rain
since 9 am
mm
Dir
 
Spd
km/h
Gust
km/h
Spd
kts
Gust
kts
30/11:30pm 17.5 14.7 7.0 50 5.3 ESE 11 15 6 8 1024.3 1023.0 0.0
30/11:00pm 16.6 15.1 4.9 46 5.6 NNE 2 9 1 5 1024.3 1023.0 0.0
30/10:30pm 18.5 15.4 5.7 43 6.4 ESE 11 11 6 6 1024.2 1022.9 0.0
30/10:00pm 19.2 16.3 4.9 39 7.0 ESE 9 11 5 6 1024.1 1022.8 0.0
30/09:30pm 20.8 16.9 5.2 36 7.8 ESE 15 19 8 10 1024.1 1022.8 0.0
30/09:00pm 20.6 16.5 4.6 35 7.9 ESE 15 19 8 10 1023.9 1022.6 0.0
30/08:30pm 21.5 17.4 4.6 33 8.4 ESE 15 19 8 10 1023.6 1022.4 0.0
30/08:00pm 21.1 18.1 4.2 33 8.3 SE 9 11 5 6 1023.4 1022.2 0.0
30/07:30pm 22.6 18.9 4.2 30 9.1 SE 13 19 7 10 1023.0 1021.8 0.0
30/07:00pm 23.3 19.6 4.3 29 9.5 ESE 13 17 7 9 1022.6 1021.4 0.0
30/06:30pm 23.6 18.8 4.5 29 9.6 ESE 19 24 10 13 1022.4 1021.1 0.0
30/06:00pm 24.4 19.0 4.7 28 10.0 SSE 22 28 12 15 1022.3 1021.0 0.0
30/05:30pm 23.9 17.4 4.8 29 9.7 SSW 28 33 15 18 1022.2 1020.9 0.0
30/05:00pm 23.8 17.2 4.2 28 9.8 SSW 28 35 15 19 1021.9 1020.6 0.0
30/04:30pm 24.4 19.3 3.1 25 10.5 SSW 19 26 10 14 1021.7 1020.4 0.0
30/04:00pm 24.9 19.7 3.5 25 10.6 SW 20 26 11 14 1021.7 1020.4 0.0
30/03:30pm 25.8 21.2 3.7 24 11.1 SSW 17 26 9 14 1021.7 1020.4 0.0
30/03:00pm 26.1 22.3 4.0 24 11.2 SW 13 30 7 16 1021.8 1020.5 0.0
30/02:30pm 26.7 24.6 3.9 23 11.6 NNW 4 11 2 6 1022.0 1020.7 0.0
30/02:00pm 25.2 21.5 4.3 26 10.6 S 13 20 7 11 1022.4 1021.1 0.0
30/01:30pm 24.8 20.6 4.0 26 10.5 SSE 15 24 8 13 1022.7 1021.5 0.0
30/01:00pm 24.3 19.4 4.1 27 10.1 S 19 26 10 14 1023.1 1021.9 0.0
30/12:30pm 24.1 20.0 4.5 28 9.9 SSE 15 20 8 11 1023.6 1022.4 0.0
30/12:00pm 23.7 19.6 4.6 29 9.6 SE 15 20 8 11 1024.2 1022.9 0.0
30/11:30am 22.6 18.9 4.6 31 9.0 SE 13 20 7 11 1024.6 1023.3 0.0
30/11:00am 21.5 16.9 5.4 35 8.1 SE 19 20 10 11 1024.8 1023.5 0.0
30/10:30am 20.7 15.0 5.1 36 7.8 SSE 24 33 13 18 1025.0 1023.7 0.0
30/10:00am 20.2 13.9 5.8 39 7.2 S 28 35 15 19 1025.1 1023.8 0.0
30/09:30am 18.5 13.7 5.7 43 6.4 S 20 28 11 15 1025.3 1024.1 0.0
30/09:00am 17.7 11.7 5.3 44 6.1 SSW 26 35 14 19 1025.2 1023.9 0.0
30/08:30am 18.3 12.6 4.8 41 6.6 SW 24 33 13 18 1024.7 1023.4 0.0
30/08:00am 16.6 13.6 6.1 50 5.2 SSE 11 13 6 7 1024.0 1022.7 0.0
30/07:30am 15.9 12.3 6.6 54 4.6 WSW 15 19 8 10 1023.9 1022.6 0.0
30/07:00am 17.0 12.9 4.3 43 6.1 SW 15 17 8 9 1023.3 1022.1 0.0
30/06:30am 17.3 13.9 3.9 41 6.4 W 11 15 6 8 1023.0 1021.8 0.0
30/06:00am 17.0 14.0 4.0 42 6.2 SSW 9 13 5 7 1022.7 1021.5 0.0
30/05:30am 17.5 13.2 3.4 39 6.7 SSW 15 17 8 9 1022.4 1021.1 0.0
30/05:00am 17.6 14.1 3.5 39 6.6 SW 11 13 6 7 1022.3 1021.0 0.0
30/04:30am 17.0 14.4 3.3 40 6.4 WSW 6 7 3 4 1022.3 1021.0 0.0
30/04:00am 17.7 16.2 2.8 37 6.9 CALM 0 6 0 3 1022.5 1021.2 0.0
30/03:30am 19.2 17.3 2.6 33 7.8 SSE 2 7 1 4 1022.4 1021.1 0.0
30/03:00am 19.6 16.0 2.9 33 7.9 SSE 11 17 6 9 1022.6 1021.4 0.0
30/02:30am 18.8 15.5 2.6 34 7.6 ESE 9 11 5 6 1022.9 1021.7 0.0
30/02:00am 18.3 16.0 2.6 35 7.3 NE 4 7 2 4 1023.1 1021.9 0.0
30/01:30am 17.4 14.2 3.0 38 6.7 NNE 9 13 5 7 1023.2 1022.0 0.0
30/01:00am 17.3 15.5 3.2 39 6.6 SSE 2 9 1 5 1023.0 1021.8 0.0
30/12:30am 17.3 15.8 2.9 38 6.7 CALM 0 0 0 0 1023.3 1022.1 0.0
30/12:00am 17.7 16.2 2.8 37 6.9 CALM 0 7 0 4 1023.2 1022.0 0.0
 
Date/Time
EDT
Temp
°C
App
Temp
°C
Dew
Point
Rel
Hum
%
Delta-T
°C
Wind Press
QNH
hPa
Press
MSL
hPa
Rain
since 9 am
mm
Dir
 
Spd
km/h
Gust
km/h
Spd
kts
Gust
kts
29/11:30pm 17.7 16.0 2.1 35 7.2 CALM 0 0 0 0 1023.3 1022.1 0.0
29/11:00pm 18.0 16.4 2.3 35 7.2 CALM 0 0 0 0 1023.3 1022.1 0.0
29/10:30pm 19.1 17.0 2.0 32 7.9 S 2 7 1 4 1023.4 1022.2 0.0
29/10:00pm 20.0 16.7 2.4 31 8.3 SSW 9 11 5 6 1023.6 1022.4 0.0
29/09:30pm 19.3 16.9 2.2 32 8.0 SSW 4 7 2 4 1023.7 1022.5 0.0
29/09:00pm 19.6 16.2 1.6 30 8.3 SW 9 11 5 6 1023.3 1022.1 0.0
29/08:30pm 20.3 16.5 1.7 29 8.7 SSW 11 11 6 6 1022.7 1021.5 0.0
29/08:00pm 20.2 16.8 1.6 29 8.6 SSW 9 11 5 6 1022.4 1021.1 0.0
29/07:30pm 20.8 16.9 1.1 27 9.1 SSW 11 11 6 6 1022.1 1020.8 0.0
29/07:00pm 22.0 18.0 0.5 24 9.9 SSW 11 13 6 7 1021.8 1020.5 0.0
29/06:30pm 24.0 19.2 0.4 21 11.0 SW 15 17 8 9 1021.7 1020.4 0.0
29/06:00pm 24.8 20.1 1.0 21 11.3 SW 15 19 8 10 1021.7 1020.4 0.0
29/05:30pm 25.1 20.7 0.6 20 11.6 SSW 13 19 7 10 1021.4 1020.1 0.0
29/05:00pm 25.3 20.6 0.7 20 11.6 SSW 15 26 8 14 1021.4 1020.1 0.0
29/04:30pm 25.7 20.5 0.4 19 12.0 SSW 17 26 9 14 1021.4 1020.1 0.0
29/04:00pm 25.9 21.5 0.5 19 12.0 SSW 13 20 7 11 1021.6 1020.3 0.0
29/03:30pm 25.7 21.3 0.4 19 12.0 SW 13 24 7 13 1021.7 1020.4 0.0
29/03:00pm 25.5 21.2 0.9 20 11.7 S 13 20 7 11 1022.1 1020.8 0.0
29/02:30pm 25.6 21.3 1.0 20 11.8 S 13 22 7 12 1022.5 1021.2 0.0
29/02:00pm 26.0 22.1 1.3 20 11.9 W 11 22 6 12 1022.7 1021.5 0.0
29/01:30pm 24.2 20.6 0.5 21 11.1 SSW 9 20 5 11 1023.0 1021.8 0.0
29/01:00pm 24.6 19.6 1.5 22 11.0 SSW 17 28 9 15 1023.2 1022.0 0.0
29/12:30pm 23.0 19.6 1.9 25 10.1 SSW 9 17 5 9 1023.6 1022.4 0.0
29/12:00pm 23.0 19.6 1.9 25 10.0 SSW 9 17 5 9 1024.2 1022.9 0.0

Other Formats:

Comma delimited format used in spreadsheet applications
http://www.bom.gov.au/fwo/IDN60801/IDN60801.95717.axf

JavaScript Object Notation format (JSON) in row-major order
http://www.bom.gov.au/fwo/IDN60801/IDN60801.95717.json